Time,TemperatureF,DewpointF,PressureIn,WindDirection,WindDirectionDegrees,WindSpeedMPH,WindSpeedGustMPH,Humidity,HourlyPrecipIn,Conditions,Clouds,dailyrainin,SoftwareType,DateUTC
2013-06-10 00:00:00,67.4,67.4,29.88,SE,128,0.0,0.0,100,0.00,,---,0.24,VWS V12.07,2013-06-10 04:00:00,
2013-06-10 00:30:00,67.6,67.6,29.89,South,182,2.0,2.0,100,0.00,,---,0.00,VWS V12.07,2013-06-10 04:30:00,
2013-06-10 01:00:00,67.8,67.5,29.89,South,185,0.0,4.0,99,0.00,,---,0.00,VWS V12.07,2013-06-10 05:00:00,
2013-06-10 01:30:00,67.6,67.3,29.88,South,175,0.0,5.0,99,0.00,,---,0.00,VWS V12.07,2013-06-10 05:30:00,
2013-06-10 02:00:00,67.6,66.7,29.87,SSE,159,0.0,0.0,97,0.00,,---,0.00,VWS V12.07,2013-06-10 06:00:00,
2013-06-10 02:30:00,67.3,66.7,29.87,South,169,0.0,0.0,98,0.00,,---,0.00,VWS V12.07,2013-06-10 06:30:00,
2013-06-10 03:00:00,67.1,66.8,29.86,South,169,0.0,0.0,99,0.06,,---,0.06,VWS V12.07,2013-06-10 07:00:00,
2013-06-10 03:30:00,67.1,66.8,29.86,South,172,0.0,0.0,99,0.09,,---,0.09,VWS V12.07,2013-06-10 07:30:00,
2013-06-10 04:00:00,66.9,66.9,29.84,South,172,0.0,0.0,100,0.05,,---,0.10,VWS V12.07,2013-06-10 08:00:00,
2013-06-10 04:30:00,66.8,66.8,29.85,South,172,0.0,1.0,100,0.01,,---,0.10,VWS V12.07,2013-06-10 08:30:00,
2013-06-10 05:00:00,66.1,65.8,29.85,SE,130,0.0,3.0,99,0.00,,---,0.10,VWS V12.07,2013-06-10 09:00:00,
2013-06-10 05:30:00,66.0,65.7,29.86,ESE,108,0.0,1.0,99,0.00,,---,0.10,VWS V12.07,2013-06-10 09:30:00,
2013-06-10 06:00:00,65.8,65.5,29.87,SE,134,0.0,0.0,99,0.00,,---,0.10,VWS V12.07,2013-06-10 10:00:00,
2013-06-10 06:30:00,66.0,66.0,29.87,SE,134,0.0,0.0,100,0.00,,---,0.10,VWS V12.07,2013-06-10 10:30:00,
2013-06-10 07:00:00,66.0,66.0,29.88,SE,134,0.0,0.0,100,0.00,,---,0.10,VWS V12.07,2013-06-10 11:00:00,
2013-06-10 07:30:00,66.3,66.3,29.88,SE,134,0.0,0.0,100,0.00,,---,0.10,VWS V12.07,2013-06-10 11:30:00,
2013-06-10 08:00:00,66.4,66.4,29.88,SE,134,0.0,0.0,100,0.00,,---,0.10,VWS V12.07,2013-06-10 12:00:00,
2013-06-10 08:30:00,66.3,66.3,29.89,South,174,0.0,5.0,100,0.00,,---,0.10,VWS V12.07,2013-06-10 12:30:00,
2013-06-10 09:00:00,66.8,66.5,29.89,ESE,123,0.0,1.0,99,0.00,,---,0.10,VWS V12.07,2013-06-10 13:00:00,
2013-06-10 09:30:00,67.1,66.5,29.89,ESE,118,3.0,3.0,98,0.01,,---,0.11,VWS V12.07,2013-06-10 13:30:00,
2013-06-10 10:00:00,67.4,66.2,29.89,East,95,1.0,1.0,96,0.04,,---,0.14,VWS V12.07,2013-06-10 14:00:00,
2013-06-10 10:30:00,67.1,66.8,29.89,East,96,0.0,1.0,99,0.13,,---,0.24,VWS V12.07,2013-06-10 14:30:00,
2013-06-10 11:00:00,65.6,65.0,29.89,SE,146,0.0,5.0,98,0.17,,---,0.30,VWS V12.07,2013-06-10 15:00:00,
2013-06-10 11:30:00,65.5,65.2,29.91,East,84,0.0,2.0,99,0.12,,---,0.35,VWS V12.07,2013-06-10 15:30:00,
2013-06-10 12:00:00,65.6,64.7,29.92,SSW,192,0.0,3.0,97,0.05,,---,0.35,VWS V12.07,2013-06-10 16:00:00,
2013-06-10 12:30:00,66.9,66.0,29.91,East,86,0.0,2.0,97,0.00,,---,0.35,VWS V12.07,2013-06-10 16:30:00,
2013-06-10 13:00:00,69.1,67.0,29.90,SE,130,0.0,3.0,93,0.00,,---,0.35,VWS V12.07,2013-06-10 17:00:00,
2013-06-10 13:30:00,71.6,66.5,29.88,SE,124,0.0,4.0,84,0.00,,---,0.35,VWS V12.07,2013-06-10 17:30:00,
2013-06-10 14:00:00,73.7,64.5,29.88,East,88,0.0,6.0,73,0.00,,---,0.35,VWS V12.07,2013-06-10 18:00:00,
2013-06-10 14:30:00,75.3,64.8,29.86,NE,39,7.0,10.0,70,0.00,,---,0.35,VWS V12.07,2013-06-10 18:30:00,
2013-06-10 15:00:00,73.9,62.3,29.86,NE,37,1.0,3.0,67,0.00,,---,0.35,VWS V12.07,2013-06-10 19:00:00,
2013-06-10 15:30:00,73.5,65.5,29.86,NNE,28,0.0,2.0,76,0.00,,---,0.35,VWS V12.07,2013-06-10 19:30:00,
2013-06-10 16:00:00,76.5,62.5,29.84,NNE,21,0.0,1.0,62,0.00,,---,0.35,VWS V12.07,2013-06-10 20:00:00,
2013-06-10 16:30:00,77.0,60.1,29.84,WNW,297,2.0,4.0,56,0.00,,---,0.35,VWS V12.07,2013-06-10 20:30:00,
2013-06-10 17:00:00,76.3,63.2,29.83,ESE,105,0.0,1.0,64,0.00,,---,0.35,VWS V12.07,2013-06-10 21:00:00,
2013-06-10 17:30:00,77.2,61.3,29.83,NE,43,0.0,1.0,58,0.00,,---,0.35,VWS V12.07,2013-06-10 21:30:00,
2013-06-10 18:00:00,76.5,63.0,29.83,East,85,0.0,4.0,63,0.00,,---,0.35,VWS V12.07,2013-06-10 22:00:00,
2013-06-10 18:30:00,75.6,66.3,29.82,East,86,1.0,1.0,73,0.00,,---,0.35,VWS V12.07,2013-06-10 22:30:00,
2013-06-10 19:00:00,73.5,65.5,29.82,SE,125,0.0,1.0,76,0.00,,---,0.35,VWS V12.07,2013-06-10 23:00:00,
2013-06-10 19:30:00,72.1,65.6,29.82,ESE,116,2.0,2.0,80,0.00,,---,0.35,VWS V12.07,2013-06-10 23:30:00,
2013-06-10 20:00:00,69.8,65.4,29.83,SE,130,0.0,0.0,86,0.00,,---,0.35,VWS V12.07,2013-06-11 00:00:00,
2013-06-10 20:30:00,68.4,64.1,29.83,SE,130,0.0,0.0,86,0.00,,---,0.35,VWS V12.07,2013-06-11 00:30:00,
2013-06-10 21:00:00,67.1,63.4,29.84,SE,130,0.0,0.0,88,0.00,,---,0.35,VWS V12.07,2013-06-11 01:00:00,
2013-06-10 21:30:00,66.3,63.3,29.85,SE,130,0.0,0.0,90,0.00,,---,0.35,VWS V12.07,2013-06-11 01:30:00,
2013-06-10 22:00:00,66.3,63.9,29.86,SE,130,0.0,0.0,92,0.00,,---,0.35,VWS V12.07,2013-06-11 02:00:00,
2013-06-10 22:30:00,66.4,64.3,29.87,SE,130,0.0,0.0,93,0.00,,---,0.35,VWS V12.07,2013-06-11 02:30:00,
2013-06-10 23:00:00,66.1,64.3,29.88,SE,130,0.0,0.0,94,0.00,,---,0.35,VWS V12.07,2013-06-11 03:00:00,
2013-06-10 23:30:00,65.3,64.1,29.89,SE,130,0.0,0.0,96,0.00,,---,0.35,VWS V12.07,2013-06-11 03:30:00,